createdAt,value
2018-01-01T00:00:47.161Z,4.35
2018-01-01T00:01:50.434Z,5.70
2018-01-01T00:02:52.967Z,5.28
2018-01-01T00:03:55.488Z,5.45
2018-01-01T00:04:58.755Z,5.43
2018-01-01T00:06:01.237Z,6.05
2018-01-01T00:07:03.823Z,5.93
2018-01-01T00:08:06.313Z,6.25
2018-01-01T00:09:08.812Z,7.40
2018-01-01T00:10:12.438Z,7.65
2018-01-01T00:11:15.675Z,7.85
2018-01-01T00:12:18.173Z,7.20
2018-01-01T00:13:20.699Z,8.93
2018-01-01T00:14:23.955Z,8.60
2018-01-01T00:15:26.496Z,9.90
2018-01-01T00:16:29.000Z,9.88
2018-01-01T00:17:31.499Z,8.90
2018-01-01T00:18:34.776Z,10.02
2018-01-01T00:19:37.304Z,9.20
2018-01-01T00:20:39.791Z,9.80
2018-01-01T00:21:45.713Z,9.85
2018-01-01T00:22:48.212Z,11.43
2018-01-01T00:23:50.780Z,11.20
2018-01-01T00:24:54.030Z,10.13
2018-01-01T00:25:56.535Z,11.90
2018-01-01T00:27:00.026Z,11.30
2018-01-01T00:28:03.269Z,11.10
2018-01-01T00:29:05.769Z,11.85
2018-01-01T00:30:08.277Z,11.43
2018-01-01T00:31:11.569Z,12.10
2018-01-01T00:32:14.044Z,11.38
2018-01-01T00:33:16.532Z,12.18
2018-01-01T00:34:19.052Z,12.52
2018-01-01T00:35:22.304Z,13.00
2018-01-01T00:36:24.800Z,12.23
2018-01-01T00:37:28.252Z,12.68
2018-01-01T00:38:30.746Z,12.27
2018-01-01T00:39:33.241Z,11.32
2018-01-01T00:40:36.526Z,11.50
2018-01-01T00:41:39.764Z,13.57
2018-01-01T00:42:42.360Z,13.00
2018-01-01T00:43:44.852Z,11.18
2018-01-01T00:44:47.314Z,11.55
2018-01-01T00:45:50.424Z,12.20
2018-01-01T00:46:52.929Z,11.60
2018-01-01T00:47:55.425Z,11.93
2018-01-01T00:48:57.947Z,12.20
2018-01-01T00:50:00.425Z,11.30
2018-01-01T00:51:02.923Z,13.18
2018-01-01T00:52:05.414Z,13.15
2018-01-01T00:53:07.900Z,13.90
2018-01-01T00:54:10.420Z,15.13
2018-01-01T00:55:12.917Z,13.90
2018-01-01T00:56:15.402Z,15.05
2018-01-01T00:57:18.308Z,15.63
2018-01-01T00:58:21.581Z,17.58
2018-01-01T00:59:24.070Z,17.30
2018-01-01T01:00:27.349Z,19.12
2018-01-01T01:01:30.637Z,18.92
2018-01-01T01:02:34.011Z,18.58
2018-01-01T01:03:36.539Z,19.42
2018-01-01T01:04:39.023Z,17.15
2018-01-01T01:05:41.533Z,18.75
2018-01-01T01:06:44.806Z,17.50
2018-01-01T01:07:48.211Z,18.02
2018-01-01T01:08:50.695Z,19.23
2018-01-01T01:09:54.009Z,16.45
2018-01-01T01:10:56.744Z,17.12
2018-01-01T01:11:59.255Z,15.55
2018-01-01T01:13:01.751Z,15.88
2018-01-01T01:14:04.236Z,15.73
2018-01-01T01:15:06.757Z,15.05
2018-01-01T01:16:09.275Z,15.95
2018-01-01T01:17:11.775Z,14.32
2018-01-01T01:18:15.025Z,14.73
2018-01-01T01:19:17.520Z,14.43
2018-01-01T01:20:20.060Z,15.10
2018-01-01T01:21:22.578Z,12.48
2018-01-01T01:22:25.851Z,12.88
2018-01-01T01:23:28.325Z,13.82
2018-01-01T01:24:30.803Z,13.00
2018-01-01T01:25:33.285Z,12.40
2018-01-01T01:26:36.536Z,11.45
2018-01-01T01:27:39.087Z,11.82
2018-01-01T01:28:42.067Z,11.38
2018-01-01T01:29:44.555Z,11.45
2018-01-01T01:30:47.206Z,10.05
2018-01-01T01:31:49.697Z,9.32
2018-01-01T01:32:52.298Z,9.02
2018-01-01T01:33:54.900Z,9.95
2018-01-01T01:34:58.183Z,9.07
2018-01-01T01:36:01.448Z,9.10
2018-01-01T01:37:03.915Z,10.32
2018-01-01T01:38:06.418Z,7.97
2018-01-01T01:39:08.899Z,8.98
2018-01-01T01:40:11.401Z,9.18
2018-01-01T01:41:13.875Z,8.15
2018-01-01T01:42:16.354Z,7.60
2018-01-01T01:43:19.595Z,6.80
2018-01-01T01:44:22.071Z,7.22
2018-01-01T01:45:24.570Z,7.00
2018-01-01T01:46:27.140Z,5.43
2018-01-01T01:47:29.612Z,6.15
2018-01-01T01:48:44.048Z,5.00
2018-01-01T01:49:46.540Z,5.30
2018-01-01T01:50:49.033Z,5.32
2018-01-01T01:51:51.549Z,5.72
2018-01-01T01:52:54.024Z,4.90
2018-01-01T01:53:56.575Z,4.78
2018-01-01T01:54:59.087Z,5.65
2018-01-01T01:56:01.606Z,5.57
2018-01-01T01:57:04.841Z,5.10
2018-01-01T01:58:07.307Z,5.93
2018-01-01T01:59:09.787Z,5.97
2018-01-01T02:00:12.288Z,6.50
2018-01-01T02:01:14.771Z,5.62
2018-01-01T02:02:18.025Z,5.37
2018-01-01T02:03:20.498Z,7.40
2018-01-01T02:04:22.982Z,6.05
2018-01-01T02:05:25.471Z,5.68
2018-01-01T02:06:28.723Z,5.55
2018-01-01T02:07:31.551Z,6.22
2018-01-01T02:08:34.790Z,6.75
2018-01-01T02:09:37.294Z,6.47
2018-01-01T02:10:40.566Z,6.50
2018-01-01T02:11:43.048Z,6.47
2018-01-01T02:12:46.292Z,6.47
2018-01-01T02:13:48.762Z,6.70
2018-01-01T02:14:51.258Z,6.07
2018-01-01T02:15:53.797Z,6.03
2018-01-01T02:16:56.274Z,6.22
2018-01-01T02:17:58.747Z,6.32
2018-01-01T02:19:01.220Z,5.12
2018-01-01T02:20:03.712Z,6.10
2018-01-01T02:21:06.197Z,6.20
2018-01-01T02:22:08.666Z,6.57
2018-01-01T02:23:11.227Z,7.57
2018-01-01T02:24:13.705Z,5.95
2018-01-01T02:25:16.181Z,5.95
2018-01-01T02:26:19.753Z,5.53
2018-01-01T02:27:22.228Z,4.97
2018-01-01T02:28:24.713Z,5.07
2018-01-01T02:29:27.189Z,4.72
2018-01-01T02:30:29.661Z,4.15
2018-01-01T02:31:32.167Z,4.72
2018-01-01T02:32:34.668Z,5.10
2018-01-01T02:33:37.144Z,4.25
2018-01-01T02:34:39.621Z,4.55
2018-01-01T02:35:42.698Z,4.45
2018-01-01T02:36:45.258Z,4.45
2018-01-01T02:37:47.759Z,4.65
2018-01-01T02:38:51.195Z,4.25
2018-01-01T02:39:53.689Z,4.00
2018-01-01T02:40:56.153Z,3.70
2018-01-01T02:41:58.644Z,3.90
2018-01-01T02:43:01.117Z,3.95
2018-01-01T02:44:03.632Z,3.30
2018-01-01T02:45:06.876Z,3.50
2018-01-01T02:46:09.346Z,3.60
2018-01-01T02:47:11.846Z,3.10
2018-01-01T02:48:15.075Z,3.53
2018-01-01T02:49:17.548Z,3.37
2018-01-01T02:50:20.787Z,4.22
2018-01-01T02:51:24.077Z,3.55
2018-01-01T02:52:26.584Z,5.32
2018-01-01T02:53:29.080Z,4.35
2018-01-01T02:54:31.553Z,3.42
2018-01-01T02:55:34.024Z,2.87
2018-01-01T02:56:36.492Z,2.72
2018-01-01T02:57:38.974Z,3.15
2018-01-01T02:58:42.421Z,2.70
2018-01-01T02:59:44.940Z,2.75
2018-01-01T03:00:47.415Z,2.67
2018-01-01T03:01:49.880Z,3.15
2018-01-01T03:02:52.406Z,2.72
2018-01-01T03:03:54.889Z,2.80
2018-01-01T03:04:57.367Z,3.03
2018-01-01T03:06:00.434Z,2.60
2018-01-01T03:07:02.948Z,3.08
2018-01-01T03:08:05.430Z,3.15
2018-01-01T03:09:08.057Z,2.35
2018-01-01T03:10:10.573Z,3.20
2018-01-01T03:11:13.048Z,2.30
2018-01-01T03:12:16.011Z,2.72
2018-01-01T03:13:18.519Z,2.33
2018-01-01T03:14:20.992Z,2.60
2018-01-01T03:15:24.220Z,2.90
2018-01-01T03:16:26.693Z,2.37
2018-01-01T03:17:29.172Z,2.62
2018-01-01T03:18:31.641Z,2.95
2018-01-01T03:19:34.129Z,2.12
2018-01-01T03:20:36.596Z,1.87
2018-01-01T03:21:39.076Z,2.58
2018-01-01T03:22:41.581Z,2.10
2018-01-01T03:23:44.808Z,2.65
2018-01-01T03:24:47.313Z,1.62
2018-01-01T03:25:49.797Z,2.40
2018-01-01T03:26:53.048Z,2.70
2018-01-01T03:27:55.522Z,2.15
2018-01-01T03:28:58.008Z,2.72
2018-01-01T03:30:00.521Z,2.53
2018-01-01T03:31:02.989Z,2.00
2018-01-01T03:32:05.476Z,1.92
2018-01-01T03:33:07.976Z,2.47
2018-01-01T03:34:10.473Z,2.15
2018-01-01T03:35:13.718Z,2.25
2018-01-01T03:36:16.192Z,2.62
2018-01-01T03:37:18.699Z,2.30
2018-01-01T03:38:21.182Z,2.47
2018-01-01T03:39:24.420Z,1.80
2018-01-01T03:40:26.910Z,2.25
2018-01-01T03:41:29.383Z,2.33
2018-01-01T03:42:31.857Z,2.08
2018-01-01T03:43:34.328Z,2.15
2018-01-01T03:44:36.801Z,2.67
2018-01-01T03:45:39.284Z,2.45
2018-01-01T03:46:43.277Z,1.90
2018-01-01T03:47:46.510Z,2.35
2018-01-01T03:48:49.027Z,2.47
2018-01-01T03:49:51.526Z,1.70
2018-01-01T03:50:53.992Z,1.90
2018-01-01T03:51:56.475Z,2.45
2018-01-01T03:52:58.960Z,2.10
2018-01-01T03:54:01.461Z,1.90
2018-01-01T03:55:04.457Z,2.25
2018-01-01T03:56:07.729Z,1.90
2018-01-01T03:57:10.220Z,2.15
2018-01-01T03:58:12.682Z,2.37
2018-01-01T03:59:15.197Z,1.90
2018-01-01T04:00:17.660Z,2.00
2018-01-01T04:01:20.924Z,1.73
2018-01-01T04:02:23.400Z,2.17
2018-01-01T04:03:25.928Z,2.65
2018-01-01T04:04:28.430Z,2.12
2018-01-01T04:05:30.898Z,2.40
2018-01-01T04:06:33.387Z,2.83
2018-01-01T04:07:36.619Z,2.40
2018-01-01T04:08:39.103Z,2.90
2018-01-01T04:09:41.582Z,2.33
2018-01-01T04:10:44.061Z,1.85
2018-01-01T04:11:46.548Z,2.03
2018-01-01T04:12:49.027Z,1.80
2018-01-01T04:13:52.259Z,2.00
2018-01-01T04:14:54.791Z,2.00
2018-01-01T04:15:57.220Z,2.50
2018-01-01T04:16:59.701Z,3.03
2018-01-01T04:18:02.166Z,2.15
2018-01-01T04:19:04.668Z,1.67
2018-01-01T04:20:07.962Z,1.73
2018-01-01T04:21:11.206Z,2.70
2018-01-01T04:22:13.680Z,1.90
2018-01-01T04:23:16.158Z,1.73
2018-01-01T04:24:18.643Z,1.95
2018-01-01T04:25:21.243Z,1.98
2018-01-01T04:26:23.722Z,2.00
2018-01-01T04:27:26.228Z,1.90
2018-01-01T04:28:28.741Z,1.70
2018-01-01T04:29:31.995Z,1.80
2018-01-01T04:30:34.467Z,1.85
2018-01-01T04:31:36.938Z,2.08
2018-01-01T04:32:39.408Z,1.80
2018-01-01T04:33:42.243Z,1.90
2018-01-01T04:34:44.746Z,1.70
2018-01-01T04:35:47.216Z,1.60
2018-01-01T04:36:49.683Z,1.60
2018-01-01T04:37:52.185Z,1.80
2018-01-01T04:38:54.676Z,1.30
2018-01-01T04:39:57.934Z,1.83
2018-01-01T04:41:00.466Z,1.70
2018-01-01T04:42:02.937Z,1.50
2018-01-01T04:43:06.201Z,1.70
2018-01-01T04:44:08.669Z,1.52
2018-01-01T04:45:11.186Z,1.20
2018-01-01T04:46:13.657Z,1.83
2018-01-01T04:47:16.145Z,1.50
2018-01-01T04:48:18.621Z,1.75
2018-01-01T04:49:21.104Z,1.65
2018-01-01T04:50:23.590Z,1.70
2018-01-01T04:51:26.058Z,1.92
2018-01-01T04:52:28.544Z,1.75
2018-01-01T04:53:31.014Z,1.60
2018-01-01T04:54:33.483Z,1.33
2018-01-01T04:55:35.972Z,1.60
2018-01-01T05:09:39.250Z,1.40
2018-01-01T05:10:41.734Z,1.85
2018-01-01T05:11:44.206Z,1.62
2018-01-01T05:12:46.708Z,2.30
2018-01-01T05:13:49.176Z,1.50
2018-01-01T05:14:51.684Z,2.45
2018-01-01T05:15:54.152Z,1.90
2018-01-01T05:16:56.620Z,2.00
2018-01-01T05:17:59.084Z,1.52
2018-01-01T05:19:01.571Z,1.67
2018-01-01T05:20:04.074Z,1.52
2018-01-01T05:21:06.539Z,1.40
2018-01-01T05:22:09.116Z,2.53
2018-01-01T05:23:11.600Z,1.50
2018-01-01T05:24:14.854Z,1.83
2018-01-01T05:25:17.346Z,1.60
2018-01-01T05:26:19.832Z,1.35
2018-01-01T05:27:23.060Z,1.75
2018-01-01T05:28:25.542Z,1.37
2018-01-01T05:29:28.116Z,1.12
2018-01-01T05:30:30.587Z,1.20
2018-01-01T05:31:33.047Z,1.52
2018-01-01T05:32:35.555Z,1.70
2018-01-01T05:33:38.045Z,1.42
2018-01-01T05:34:41.278Z,1.92
2018-01-01T05:35:43.760Z,1.37
2018-01-01T05:36:46.254Z,1.55
2018-01-01T05:37:49.507Z,1.48
2018-01-01T05:38:51.991Z,2.03
2018-01-01T05:39:54.469Z,1.27
2018-01-01T05:40:56.967Z,1.15
2018-01-01T05:42:00.194Z,2.10
2018-01-01T05:43:02.703Z,1.58
2018-01-01T05:44:05.180Z,1.30
2018-01-01T05:45:08.130Z,1.50
2018-01-01T05:46:10.613Z,1.50
2018-01-01T05:47:13.088Z,1.70
2018-01-01T05:48:15.568Z,1.40
2018-01-01T05:49:18.023Z,1.50
2018-01-01T05:50:20.493Z,1.83
2018-01-01T05:51:23.130Z,1.75
2018-01-01T05:52:25.591Z,1.85
2018-01-01T05:53:28.189Z,1.50
2018-01-01T05:54:30.682Z,1.70
2018-01-01T05:55:33.144Z,1.70
2018-01-01T05:56:35.613Z,1.50
2018-01-01T05:57:38.082Z,1.62
2018-01-01T05:58:40.563Z,1.55
2018-01-01T05:59:43.057Z,1.83
2018-01-01T06:00:46.297Z,1.50
2018-01-01T06:01:48.766Z,1.40
2018-01-01T06:02:51.232Z,1.77
2018-01-01T06:03:53.711Z,1.70
2018-01-01T06:04:56.208Z,1.35
2018-01-01T06:05:58.711Z,2.53
2018-01-01T06:07:01.948Z,1.98
2018-01-01T06:08:04.423Z,2.08
2018-01-01T06:09:07.047Z,1.37
2018-01-01T06:10:09.534Z,1.92
2018-01-01T06:11:11.994Z,1.90
2018-01-01T06:12:14.459Z,2.00
2018-01-01T06:13:16.912Z,2.00
2018-01-01T06:14:20.177Z,1.60
2018-01-01T06:15:22.674Z,1.40
2018-01-01T06:16:25.933Z,1.90
2018-01-01T06:17:28.460Z,1.80
2018-01-01T06:18:30.939Z,1.80
2018-01-01T06:19:33.401Z,1.25
2018-01-01T06:20:35.862Z,1.70
2018-01-01T06:21:38.380Z,2.10
2018-01-01T06:22:40.845Z,1.90
2018-01-01T06:23:43.304Z,1.80
2018-01-01T06:24:45.818Z,2.05
2018-01-01T06:25:49.054Z,1.75
2018-01-01T06:26:51.554Z,1.77
2018-01-01T06:27:54.020Z,1.20
2018-01-01T06:28:56.488Z,1.50
2018-01-01T06:29:58.969Z,3.10
2018-01-01T06:31:01.442Z,2.45
2018-01-01T06:32:04.781Z,1.75
2018-01-01T06:33:07.258Z,1.95
2018-01-01T06:34:10.050Z,2.05
2018-01-01T06:35:12.549Z,2.05
2018-01-01T06:36:15.043Z,1.95
2018-01-01T06:37:17.541Z,1.50
2018-01-01T06:38:20.776Z,2.15
2018-01-01T06:39:23.234Z,1.90
2018-01-01T06:40:25.776Z,1.83
2018-01-01T06:41:28.261Z,2.20
2018-01-01T06:42:30.745Z,2.08
2018-01-01T06:43:33.960Z,1.50
2018-01-01T06:44:36.425Z,1.92
2018-01-01T06:45:38.898Z,2.22
2018-01-01T06:46:41.355Z,1.62
2018-01-01T06:47:43.936Z,1.92
2018-01-01T06:48:46.409Z,1.90
2018-01-01T06:49:48.891Z,2.28
2018-01-01T06:50:51.382Z,1.90
2018-01-01T06:51:54.612Z,1.70
2018-01-01T06:52:57.117Z,3.08
2018-01-01T06:53:59.600Z,2.20
2018-01-01T06:55:02.881Z,2.08
2018-01-01T06:56:05.345Z,1.87
2018-01-01T06:57:07.838Z,2.25
2018-01-01T06:58:11.147Z,1.50
2018-01-01T06:59:13.622Z,2.25
2018-01-01T07:00:16.096Z,2.58
2018-01-01T07:01:18.570Z,2.65
2018-01-01T07:02:21.084Z,2.00
2018-01-01T07:03:23.559Z,2.08
2018-01-01T07:04:26.037Z,1.60
2018-01-01T07:05:29.413Z,1.90
2018-01-01T07:06:31.877Z,1.80
2018-01-01T07:07:34.391Z,2.15
2018-01-01T07:08:36.866Z,1.52
2018-01-01T07:09:39.344Z,1.87
2018-01-01T07:10:41.830Z,1.80
2018-01-01T07:11:44.307Z,2.25
2018-01-01T07:12:46.772Z,1.80
2018-01-01T07:13:50.028Z,1.70
2018-01-01T07:14:52.515Z,2.00
2018-01-01T07:15:55.004Z,1.52
2018-01-01T07:16:57.468Z,2.00
2018-01-01T07:17:59.940Z,2.05
2018-01-01T07:19:02.400Z,1.90
2018-01-01T07:20:04.896Z,2.20
2018-01-01T07:21:07.466Z,2.22
2018-01-01T07:22:09.987Z,2.37
2018-01-01T07:23:13.863Z,2.22
2018-01-01T07:24:16.328Z,2.20
2018-01-01T07:25:18.814Z,1.70
2018-01-01T07:26:21.283Z,2.10
2018-01-01T07:27:23.756Z,1.70
2018-01-01T07:28:26.229Z,1.98
2018-01-01T07:29:29.523Z,2.10
2018-01-01T07:30:32.780Z,2.12
2018-01-01T07:31:35.266Z,2.03
2018-01-01T07:32:37.723Z,2.60
2018-01-01T07:33:40.185Z,2.97
2018-01-01T07:34:42.658Z,2.10
2018-01-01T07:35:45.147Z,2.22
2018-01-01T07:36:47.622Z,1.98
2018-01-01T07:37:50.858Z,2.03
2018-01-01T07:38:53.318Z,2.20
2018-01-01T07:39:55.787Z,1.95
2018-01-01T07:40:58.285Z,1.75
2018-01-01T07:42:00.760Z,1.67
2018-01-01T07:43:03.240Z,2.40
2018-01-01T07:44:05.703Z,2.35
2018-01-01T07:45:08.245Z,2.28
2018-01-01T07:46:10.919Z,1.92
2018-01-01T07:47:13.417Z,2.10
2018-01-01T07:48:15.881Z,1.98
2018-01-01T07:49:18.352Z,1.80
2018-01-01T07:50:20.815Z,1.73
2018-01-01T07:51:23.320Z,2.65
2018-01-01T07:52:25.789Z,2.00
2018-01-01T07:53:28.309Z,1.70
2018-01-01T07:54:30.784Z,1.60
2018-01-01T07:55:33.261Z,2.05
2018-01-01T07:56:35.734Z,2.17
2018-01-01T07:57:38.204Z,2.30
2018-01-01T07:58:40.671Z,1.65
2018-01-01T07:59:43.167Z,1.77
2018-01-01T08:00:45.636Z,2.37
2018-01-01T08:01:48.113Z,1.95
2018-01-01T08:02:50.591Z,2.08
2018-01-01T08:03:53.053Z,2.00
2018-01-01T08:04:55.537Z,1.90
2018-01-01T08:05:58.012Z,1.85
2018-01-01T08:07:01.256Z,2.20
2018-01-01T08:08:03.728Z,1.70
2018-01-01T08:09:06.234Z,1.73
2018-01-01T08:10:08.699Z,2.22
2018-01-01T08:11:11.321Z,1.58
2018-01-01T08:12:13.791Z,1.58
2018-01-01T08:13:17.021Z,1.90
2018-01-01T08:14:19.525Z,1.50
2018-01-01T08:15:22.761Z,1.70
2018-01-01T08:16:25.231Z,1.90
2018-01-01T08:17:27.752Z,1.40
2018-01-01T08:18:31.020Z,2.00
2018-01-01T08:19:33.512Z,1.85
2018-01-01T08:20:36.749Z,2.10
2018-01-01T08:21:39.231Z,1.83
2018-01-01T08:22:41.704Z,1.98
2018-01-01T08:23:44.192Z,1.85
2018-01-01T08:24:46.655Z,1.58
2018-01-01T08:25:49.145Z,1.92
2018-01-01T08:26:52.376Z,1.45
2018-01-01T08:27:54.840Z,2.00
2018-01-01T08:28:57.328Z,1.92
2018-01-01T08:29:59.795Z,1.80
2018-01-01T08:31:02.270Z,2.53
2018-01-01T08:32:04.732Z,2.20
2018-01-01T08:33:07.229Z,2.65
2018-01-01T08:34:09.926Z,2.25
2018-01-01T08:35:13.214Z,1.95
2018-01-01T08:36:16.463Z,1.77
2018-01-01T08:37:18.930Z,2.15
2018-01-01T08:38:21.400Z,1.77
2018-01-01T08:39:23.892Z,2.50
2018-01-01T08:40:26.355Z,2.08
2018-01-01T08:41:28.836Z,2.55
2018-01-01T08:42:31.325Z,1.98
2018-01-01T08:43:33.807Z,2.22
2018-01-01T08:44:37.064Z,2.17
2018-01-01T08:45:39.540Z,1.80
2018-01-01T08:46:42.021Z,1.85
2018-01-01T08:47:45.256Z,1.75
2018-01-01T08:48:47.732Z,2.28
2018-01-01T08:49:50.222Z,2.10
2018-01-01T08:50:52.701Z,2.03
2018-01-01T08:51:55.195Z,2.45
2018-01-01T08:52:58.429Z,1.98
2018-01-01T08:54:00.906Z,2.00
2018-01-01T08:55:03.392Z,2.35
2018-01-01T08:56:05.872Z,2.20
2018-01-01T08:57:08.373Z,1.85
2018-01-01T08:58:10.952Z,2.03
2018-01-01T08:59:13.487Z,2.45
2018-01-01T09:00:15.980Z,2.05
2018-01-01T09:01:19.216Z,2.22
2018-01-01T09:02:21.693Z,1.92
2018-01-01T09:03:24.173Z,1.62
2018-01-01T09:04:27.274Z,1.90
2018-01-01T09:05:30.672Z,2.20
2018-01-01T09:06:33.909Z,1.95
2018-01-01T09:07:36.388Z,1.80
2018-01-01T09:08:38.913Z,1.80
2018-01-01T09:09:42.159Z,2.22
2018-01-01T09:10:44.656Z,1.75
2018-01-01T09:11:47.149Z,1.70
2018-01-01T09:12:51.098Z,1.92
2018-01-01T09:13:53.565Z,2.40
2018-01-01T09:14:56.063Z,1.80
2018-01-01T09:15:58.550Z,1.80
2018-01-01T09:17:01.066Z,1.62
2018-01-01T09:18:03.577Z,1.50
2018-01-01T09:19:06.062Z,1.50
2018-01-01T09:20:08.570Z,1.35
2018-01-01T09:21:11.152Z,2.40
2018-01-01T09:22:13.659Z,1.20
2018-01-01T09:23:16.907Z,2.72
2018-01-01T09:24:19.456Z,1.90
2018-01-01T09:25:22.018Z,2.00
2018-01-01T09:26:24.556Z,1.83
2018-01-01T09:27:27.905Z,1.52
2018-01-01T09:28:30.463Z,1.90
2018-01-01T09:29:33.070Z,2.03
2018-01-01T09:30:35.664Z,1.90
2018-01-01T09:31:39.058Z,1.55
2018-01-01T09:32:42.989Z,2.00
2018-01-01T09:33:45.586Z,1.80
2018-01-01T09:34:48.088Z,1.42
2018-01-01T09:35:51.364Z,1.55
2018-01-01T09:36:53.905Z,1.80
2018-01-01T09:37:56.437Z,2.35
2018-01-01T09:38:59.752Z,2.08
2018-01-01T09:40:02.272Z,2.80
2018-01-01T09:41:05.563Z,1.70
2018-01-01T09:42:08.094Z,2.60
2018-01-01T09:43:10.831Z,2.33
2018-01-01T09:44:13.432Z,2.45
2018-01-01T09:45:16.880Z,2.05
2018-01-01T09:46:19.426Z,2.05
2018-01-01T09:47:21.944Z,2.03
2018-01-01T09:48:25.273Z,2.47
2018-01-01T09:49:27.788Z,1.60
2018-01-01T09:50:30.335Z,1.90
2018-01-01T09:51:32.896Z,1.70
2018-01-01T09:52:36.239Z,1.70
2018-01-01T09:53:39.566Z,1.85
2018-01-01T09:54:42.136Z,1.80
2018-01-01T09:55:44.640Z,1.55
2018-01-01T09:56:47.161Z,1.75
2018-01-01T09:57:49.699Z,2.62
2018-01-01T09:58:52.202Z,1.70
2018-01-01T09:59:57.377Z,1.65
2018-01-01T10:01:00.804Z,2.20
2018-01-01T10:02:03.361Z,2.35
2018-01-01T10:03:06.715Z,2.12
2018-01-01T10:04:09.315Z,1.80
2018-01-01T10:05:12.028Z,1.90
2018-01-01T10:06:14.581Z,1.70
2018-01-01T10:07:17.077Z,2.10
2018-01-01T10:08:20.342Z,2.15
2018-01-01T10:09:23.964Z,2.35
2018-01-01T10:10:27.305Z,2.10
2018-01-01T10:11:29.860Z,1.83
2018-01-01T10:12:32.480Z,1.67
2018-01-01T10:13:35.095Z,1.55
2018-01-01T10:14:37.627Z,1.92
2018-01-01T10:15:40.260Z,1.60
2018-01-01T10:16:42.854Z,1.80
2018-01-01T10:17:46.832Z,1.67
2018-01-01T10:18:49.456Z,1.62
2018-01-01T10:19:52.117Z,1.70
2018-01-01T10:20:54.831Z,1.80
2018-01-01T10:21:59.984Z,1.80
2018-01-01T10:23:03.622Z,1.50
2018-01-01T10:24:14.312Z,1.30
2018-01-01T10:25:20.194Z,1.67
2018-01-01T10:26:24.619Z,1.45
2018-01-01T10:27:27.265Z,1.62
2018-01-01T10:28:30.694Z,1.80
2018-01-01T10:29:33.843Z,1.50
2018-01-01T10:30:36.564Z,1.65
2018-01-01T10:31:39.404Z,1.50
2018-01-01T10:32:43.033Z,1.50
2018-01-01T10:33:45.697Z,1.90
2018-01-01T10:34:48.202Z,1.58
2018-01-01T10:35:50.757Z,1.50
2018-01-01T10:36:53.364Z,1.27
2018-01-01T10:37:56.860Z,1.33
2018-01-01T10:39:00.018Z,1.65
2018-01-01T10:40:02.553Z,1.35
2018-01-01T10:41:05.915Z,1.77
2018-01-01T10:42:08.428Z,1.58
2018-01-01T10:43:11.134Z,1.30
2018-01-01T10:44:13.670Z,1.33
2018-01-01T10:45:16.307Z,1.27
2018-01-01T10:46:18.868Z,1.62
2018-01-01T10:47:21.540Z,1.33
2018-01-01T10:48:24.138Z,1.85
2018-01-01T10:49:26.829Z,1.50
2018-01-01T10:50:30.278Z,1.40
2018-01-01T10:51:32.870Z,1.55
2018-01-01T10:52:35.577Z,1.75
2018-01-01T10:53:38.155Z,1.80
2018-01-01T10:54:40.939Z,1.58
2018-01-01T10:55:43.703Z,1.33
2018-01-01T10:56:47.030Z,1.30
2018-01-01T10:57:50.391Z,1.30
2018-01-01T10:58:53.939Z,1.90
2018-01-01T10:59:56.480Z,1.30
2018-01-01T11:00:59.151Z,1.60
2018-01-01T11:02:01.699Z,1.30
2018-01-01T11:03:04.247Z,1.10
2018-01-01T11:04:06.811Z,1.60
2018-01-01T11:05:09.406Z,2.55
2018-01-01T11:06:12.262Z,1.75
2018-01-01T11:07:14.964Z,1.35
2018-01-01T11:08:17.518Z,1.70
2018-01-01T11:09:20.048Z,1.70
2018-01-01T11:10:22.570Z,1.58
2018-01-01T11:11:25.073Z,1.75
2018-01-01T11:12:27.600Z,1.65
2018-01-01T11:13:30.341Z,1.52
2018-01-01T11:14:32.921Z,1.30
2018-01-01T11:15:36.889Z,1.48
2018-01-01T11:16:39.419Z,1.35
2018-01-01T11:17:41.983Z,1.70
2018-01-01T11:18:47.263Z,1.40
2018-01-01T11:19:49.816Z,1.50
2018-01-01T11:20:52.373Z,1.50
2018-01-01T11:21:54.892Z,2.00
2018-01-01T11:22:58.091Z,1.80
2018-01-01T11:24:00.788Z,1.58
2018-01-01T11:25:03.305Z,2.10
2018-01-01T11:26:06.618Z,1.25
2018-01-01T11:27:10.093Z,2.15
2018-01-01T11:28:12.782Z,2.00
2018-01-01T11:29:15.415Z,2.05
2018-01-01T11:30:17.906Z,1.77
2018-01-01T11:31:21.223Z,1.98
2018-01-01T11:32:23.825Z,1.42
2018-01-01T11:33:27.284Z,1.75
2018-01-01T11:34:29.997Z,1.50
2018-01-01T11:35:32.524Z,2.00
2018-01-01T11:36:42.595Z,1.90
2018-01-01T11:37:45.257Z,1.40
2018-01-01T11:38:47.803Z,1.70
2018-01-01T11:39:52.716Z,1.75
2018-01-01T11:40:56.180Z,1.70
2018-01-01T11:41:59.576Z,1.87
2018-01-01T11:43:05.012Z,1.60
2018-01-01T11:44:07.534Z,1.70
2018-01-01T11:45:10.182Z,1.60
2018-01-01T11:46:16.161Z,1.60
2018-01-01T11:47:18.766Z,1.65
2018-01-01T11:48:21.293Z,1.75
2018-01-01T11:49:25.707Z,1.60
2018-01-01T11:50:28.246Z,2.28
2018-01-01T11:51:30.895Z,1.87
2018-01-01T11:52:33.532Z,1.65
2018-01-01T11:53:36.871Z,1.75
2018-01-01T11:54:39.435Z,1.60
2018-01-01T11:55:43.420Z,2.40
2018-01-01T11:56:45.970Z,1.70
2018-01-01T11:57:50.654Z,1.83
2018-01-01T11:58:53.201Z,2.00
2018-01-01T11:59:55.731Z,1.50
2018-01-01T12:00:59.982Z,2.08
2018-01-01T12:02:03.391Z,2.08
2018-01-01T12:03:05.970Z,1.60
2018-01-01T12:04:09.429Z,1.65
2018-01-01T12:05:12.612Z,2.00
2018-01-01T12:06:15.193Z,2.10
2018-01-01T12:07:18.677Z,1.50
2018-01-01T12:08:21.490Z,2.12
2018-01-01T12:09:24.050Z,1.70
2018-01-01T12:10:26.561Z,1.50
2018-01-01T12:11:29.079Z,1.90
2018-01-01T12:12:32.079Z,2.00
2018-01-01T12:13:35.366Z,1.85
2018-01-01T12:14:37.876Z,1.50
2018-01-01T12:15:40.470Z,1.95
2018-01-01T12:16:43.010Z,1.90
2018-01-01T12:17:45.552Z,1.45
2018-01-01T12:18:48.067Z,2.10
2018-01-01T12:19:50.629Z,1.90
2018-01-01T12:20:53.164Z,1.50
2018-01-01T12:21:55.701Z,1.50
2018-01-01T12:22:58.223Z,1.83
2018-01-01T12:24:00.770Z,1.85
2018-01-01T12:25:03.306Z,1.75
2018-01-01T12:26:06.630Z,1.80
2018-01-01T12:27:09.201Z,1.95
2018-01-01T12:28:12.758Z,1.90
2018-01-01T12:29:15.269Z,2.05
2018-01-01T12:30:18.945Z,1.87
2018-01-01T12:31:22.254Z,1.92
2018-01-01T12:32:24.814Z,1.60
2018-01-01T12:33:27.357Z,1.90
2018-01-01T12:34:29.889Z,1.90
2018-01-01T12:35:32.422Z,3.05
2018-01-01T12:36:34.937Z,1.65
2018-01-01T12:37:37.489Z,1.77
2018-01-01T12:38:40.076Z,1.87
2018-01-01T12:39:42.814Z,1.95
2018-01-01T12:40:45.515Z,2.40
2018-01-01T12:41:48.082Z,1.65
2018-01-01T12:42:50.641Z,1.95
2018-01-01T12:43:53.168Z,1.92
2018-01-01T12:44:55.853Z,2.42
2018-01-01T12:45:58.630Z,1.92
2018-01-01T12:47:01.144Z,2.50
2018-01-01T12:48:03.665Z,1.80
2018-01-01T12:49:06.212Z,2.15
2018-01-01T12:50:08.742Z,2.08
2018-01-01T12:51:11.510Z,1.40
2018-01-01T12:52:14.055Z,2.67
2018-01-01T12:53:16.804Z,2.00
2018-01-01T12:54:19.389Z,2.25
2018-01-01T12:55:21.953Z,2.40
2018-01-01T12:56:24.464Z,2.10
2018-01-01T12:57:27.781Z,1.90
2018-01-01T12:58:30.294Z,1.80
2018-01-01T12:59:32.898Z,2.12
2018-01-01T13:00:36.221Z,2.00
2018-01-01T13:01:38.767Z,1.83
2018-01-01T13:02:41.303Z,2.08
2018-01-01T13:03:44.488Z,2.00
2018-01-01T13:04:46.996Z,2.05
2018-01-01T13:05:50.285Z,1.48
2018-01-01T13:06:53.592Z,2.47
2018-01-01T13:07:56.146Z,1.55
2018-01-01T13:08:59.432Z,2.37
2018-01-01T13:10:02.730Z,2.00
2018-01-01T13:11:05.307Z,1.92
2018-01-01T13:12:07.843Z,2.30
2018-01-01T13:13:11.451Z,3.00
2018-01-01T13:14:14.002Z,1.55
2018-01-01T13:15:16.585Z,2.03
2018-01-01T13:16:19.137Z,2.55
2018-01-01T13:17:21.671Z,2.62
2018-01-01T13:18:24.235Z,2.15
2018-01-01T13:19:26.756Z,1.95
2018-01-01T13:20:29.362Z,1.35
2018-01-01T13:21:32.701Z,2.10
2018-01-01T13:22:35.226Z,2.20
2018-01-01T13:23:38.492Z,1.85
2018-01-01T13:24:41.118Z,2.10
2018-01-01T13:25:43.659Z,2.10
2018-01-01T13:26:47.700Z,2.33
2018-01-01T13:27:50.272Z,2.40
2018-01-01T13:28:52.912Z,2.03
2018-01-01T13:29:56.219Z,2.30
2018-01-01T13:30:58.796Z,2.53
2018-01-01T13:32:01.407Z,2.30
2018-01-01T13:33:03.939Z,1.98
2018-01-01T13:34:06.506Z,2.78
2018-01-01T13:35:09.034Z,2.30
2018-01-01T13:36:12.451Z,2.15
2018-01-01T13:37:15.112Z,2.15
2018-01-01T13:38:17.635Z,2.35
2018-01-01T13:39:20.157Z,2.72
2018-01-01T13:40:22.700Z,2.28
2018-01-01T13:41:25.263Z,2.62
2018-01-01T13:42:27.800Z,4.30
2018-01-01T13:43:30.339Z,2.37
2018-01-01T13:44:32.854Z,1.70
2018-01-01T13:45:35.382Z,2.42
2018-01-01T13:46:37.936Z,2.20
2018-01-01T13:47:40.496Z,2.60
2018-01-01T13:48:43.093Z,2.42
2018-01-01T13:49:45.640Z,3.50
2018-01-01T13:50:49.097Z,2.70
2018-01-01T13:51:52.378Z,2.42
2018-01-01T13:52:55.719Z,2.10
2018-01-01T13:53:58.219Z,2.80
2018-01-01T13:55:03.758Z,2.60
2018-01-01T13:56:07.113Z,3.00
2018-01-01T13:57:10.376Z,4.00
2018-01-01T13:58:13.037Z,3.37
2018-01-01T13:59:16.398Z,2.30
2018-01-01T14:00:19.071Z,2.53
2018-01-01T14:01:22.392Z,2.17
2018-01-01T14:02:24.945Z,2.35
2018-01-01T14:16:24.446Z,2.37
2018-01-01T14:17:27.062Z,3.40
2018-01-01T14:18:29.754Z,2.10
2018-01-01T14:19:33.242Z,2.97